createdAt,value
2016-12-25T00:00:19.655Z,1018.97
2016-12-25T00:00:45.356Z,1019.05
2016-12-25T00:01:10.940Z,1019
2016-12-25T00:01:36.510Z,1018.94
2016-12-25T00:02:02.072Z,1018.98
2016-12-25T00:02:27.775Z,1018.97
2016-12-25T00:02:53.346Z,1018.91
2016-12-25T00:03:18.940Z,1018.92
2016-12-25T00:03:44.575Z,1018.96
2016-12-25T00:04:10.189Z,1018.92
2016-12-25T00:04:35.746Z,1018.98
2016-12-25T00:05:01.406Z,1018.88
2016-12-25T00:05:26.987Z,1018.86
2016-12-25T00:05:52.571Z,1018.9
2016-12-25T00:06:18.131Z,1018.95
2016-12-25T00:06:43.730Z,1018.85
2016-12-25T00:07:09.295Z,1018.97
2016-12-25T00:07:34.824Z,1019
2016-12-25T00:08:00.595Z,1018.96
2016-12-25T00:08:26.179Z,1018.96
2016-12-25T00:08:51.748Z,1018.97
2016-12-25T00:09:17.316Z,1019.02
2016-12-25T00:09:43.005Z,1018.93
2016-12-25T00:10:08.583Z,1018.94
2016-12-25T00:10:34.171Z,1018.96
2016-12-25T00:10:59.758Z,1018.91
2016-12-25T00:11:25.308Z,1018.91
2016-12-25T00:11:50.876Z,1018.95
2016-12-25T00:12:16.516Z,1018.92
2016-12-25T00:12:42.074Z,1019.04
2016-12-25T00:13:07.629Z,1019.05
2016-12-25T00:13:33.199Z,1019
2016-12-25T00:13:58.751Z,1018.97
2016-12-25T00:14:24.420Z,1019.05
2016-12-25T00:14:49.963Z,1019.06
2016-12-25T00:15:15.522Z,1019.08
2016-12-25T00:15:41.083Z,1019.11
2016-12-25T00:16:06.707Z,1019.1
2016-12-25T00:16:32.274Z,1019.04
2016-12-25T00:16:57.859Z,1019.07
2016-12-25T00:17:23.528Z,1019.11
2016-12-25T00:17:49.092Z,1019.01
2016-12-25T00:18:14.649Z,1019.03
2016-12-25T00:18:40.213Z,1019.02
2016-12-25T00:19:05.765Z,1019.07
2016-12-25T00:19:31.329Z,1019.04
2016-12-25T00:19:56.923Z,1019.08
2016-12-25T00:20:22.498Z,1019.2
2016-12-25T00:20:48.081Z,1019.08
2016-12-25T00:21:13.673Z,1019.12
2016-12-25T00:21:39.220Z,1019.02
2016-12-25T00:22:04.771Z,1019.17
2016-12-25T00:22:30.330Z,1019.13
2016-12-25T00:22:55.903Z,1019.13
2016-12-25T00:23:21.473Z,1019.25
2016-12-25T00:23:47.046Z,1019.27
2016-12-25T00:24:12.607Z,1019.33
2016-12-25T00:24:38.175Z,1019.25
2016-12-25T00:25:03.827Z,1019.26
2016-12-25T00:25:29.372Z,1019.31
2016-12-25T00:25:54.932Z,1019.21
2016-12-25T00:26:20.496Z,1019.26
2016-12-25T00:26:46.071Z,1019.27
2016-12-25T00:27:11.647Z,1019.29
2016-12-25T00:28:10.427Z,1019.32
2016-12-25T00:29:24.342Z,1019.39
2016-12-25T00:29:49.909Z,1019.36
2016-12-25T00:30:15.496Z,1019.39
2016-12-25T00:30:41.051Z,1019.36
2016-12-25T00:31:06.582Z,1019.39
2016-12-25T00:31:32.147Z,1019.35
2016-12-25T00:31:57.704Z,1019.27
2016-12-25T00:32:23.262Z,1019.31
2016-12-25T00:32:48.884Z,1019.35
2016-12-25T00:33:14.440Z,1019.3
2016-12-25T00:33:39.981Z,1019.41
2016-12-25T00:34:05.595Z,1019.31
2016-12-25T00:34:31.248Z,1019.42
2016-12-25T00:34:56.807Z,1019.52
2016-12-25T00:35:22.374Z,1019.44
2016-12-25T00:35:47.904Z,1019.47
2016-12-25T00:36:13.466Z,1019.49
2016-12-25T00:36:39.063Z,1019.54
2016-12-25T00:37:04.614Z,1019.48
2016-12-25T00:37:30.273Z,1019.43
2016-12-25T00:37:55.895Z,1019.44
2016-12-25T00:38:21.440Z,1019.49
2016-12-25T00:38:47.005Z,1019.47
2016-12-25T00:39:12.660Z,1019.42
2016-12-25T00:39:38.217Z,1019.4
2016-12-25T00:40:03.793Z,1019.45
2016-12-25T00:40:29.445Z,1019.41
2016-12-25T00:40:55.051Z,1019.39
2016-12-25T00:41:20.600Z,1019.44
2016-12-25T00:41:46.173Z,1019.42
2016-12-25T00:42:11.817Z,1019.47
2016-12-25T00:42:37.400Z,1019.39
2016-12-25T00:43:02.958Z,1019.38
2016-12-25T00:43:28.505Z,1019.45
2016-12-25T00:43:54.048Z,1019.5
2016-12-25T00:44:19.662Z,1019.41
2016-12-25T00:45:18.272Z,1019.53
2016-12-25T00:45:43.969Z,1019.52
2016-12-25T00:46:09.535Z,1019.5
2016-12-25T00:46:35.114Z,1019.45
2016-12-25T00:47:00.675Z,1019.46
2016-12-25T00:47:26.231Z,1019.56
2016-12-25T00:47:51.779Z,1019.57
2016-12-25T00:48:17.329Z,1019.56
2016-12-25T00:48:42.880Z,1019.56
2016-12-25T00:49:08.533Z,1019.48
2016-12-25T00:49:34.208Z,1019.48
2016-12-25T00:49:59.775Z,1019.46
2016-12-25T00:50:25.347Z,1019.44
2016-12-25T00:50:50.909Z,1019.48
2016-12-25T00:51:16.477Z,1019.49
2016-12-25T00:51:42.069Z,1019.51
2016-12-25T00:52:07.781Z,1019.4
2016-12-25T00:52:33.336Z,1019.34
2016-12-25T00:52:58.879Z,1019.46
2016-12-25T00:53:24.578Z,1019.4
2016-12-25T00:53:50.119Z,1019.46
2016-12-25T00:54:15.670Z,1019.48
2016-12-25T00:54:41.276Z,1019.54
2016-12-25T00:55:06.994Z,1019.51
2016-12-25T00:55:32.556Z,1019.51
2016-12-25T00:55:58.104Z,1019.57
2016-12-25T00:56:23.699Z,1019.43
2016-12-25T00:56:49.259Z,1019.42
2016-12-25T00:57:14.829Z,1019.49
2016-12-25T00:57:40.405Z,1019.35
2016-12-25T00:58:05.981Z,1019.36
2016-12-25T00:58:31.578Z,1019.35
2016-12-25T00:58:57.148Z,1019.42
2016-12-25T00:59:22.708Z,1019.33
2016-12-25T00:59:48.263Z,1019.39
2016-12-25T01:00:13.940Z,1019.35
2016-12-25T01:00:39.503Z,1019.37
2016-12-25T01:01:05.124Z,1019.34
2016-12-25T01:01:30.782Z,1019.34
2016-12-25T01:01:56.351Z,1019.29
2016-12-25T01:02:21.924Z,1019.24
2016-12-25T01:02:47.486Z,1019.19
2016-12-25T01:03:13.054Z,1019.24
2016-12-25T01:03:38.604Z,1019.34
2016-12-25T01:04:04.166Z,1019.36
2016-12-25T01:04:29.715Z,1019.27
2016-12-25T01:04:55.267Z,1019.28
2016-12-25T01:05:20.812Z,1019.33
2016-12-25T01:05:46.363Z,1019.37
2016-12-25T01:06:11.929Z,1019.37
2016-12-25T01:06:37.513Z,1019.37
2016-12-25T01:07:03.115Z,1019.4
2016-12-25T01:07:28.721Z,1019.39
2016-12-25T01:07:54.273Z,1019.43
2016-12-25T01:08:19.844Z,1019.35
2016-12-25T01:08:45.479Z,1019.42
2016-12-25T01:09:11.066Z,1019.4
2016-12-25T01:09:36.628Z,1019.35
2016-12-25T01:10:02.182Z,1019.36
2016-12-25T01:10:27.723Z,1019.35
2016-12-25T01:10:53.302Z,1019.4
2016-12-25T01:11:18.869Z,1019.43
2016-12-25T01:11:44.435Z,1019.51
2016-12-25T01:12:09.989Z,1019.52
2016-12-25T01:12:35.635Z,1019.5
2016-12-25T01:13:01.191Z,1019.47
2016-12-25T01:13:26.774Z,1019.45
2016-12-25T01:13:52.438Z,1019.39
2016-12-25T01:14:18.142Z,1019.52
2016-12-25T01:14:43.704Z,1019.35
2016-12-25T01:15:09.244Z,1019.47
2016-12-25T01:15:34.833Z,1019.4
2016-12-25T01:16:00.390Z,1019.47
2016-12-25T01:16:25.986Z,1019.37
2016-12-25T01:16:51.568Z,1019.46
2016-12-25T01:17:17.140Z,1019.49
2016-12-25T01:17:42.702Z,1019.42
2016-12-25T01:18:08.262Z,1019.37
2016-12-25T01:18:33.835Z,1019.36
2016-12-25T01:18:59.490Z,1019.45
2016-12-25T01:19:25.040Z,1019.53
2016-12-25T01:19:50.598Z,1019.49
2016-12-25T01:20:16.165Z,1019.48
2016-12-25T01:20:41.758Z,1019.54
2016-12-25T01:21:07.322Z,1019.4
2016-12-25T01:21:32.880Z,1019.44
2016-12-25T01:21:58.558Z,1019.44
2016-12-25T01:22:24.119Z,1019.5
2016-12-25T01:22:49.675Z,1019.56
2016-12-25T01:23:15.239Z,1019.5
2016-12-25T01:23:40.794Z,1019.5
2016-12-25T01:24:06.436Z,1019.46
2016-12-25T01:24:32.070Z,1019.51
2016-12-25T01:24:57.627Z,1019.52
2016-12-25T01:25:23.240Z,1019.56
2016-12-25T01:25:48.866Z,1019.48
2016-12-25T01:26:14.429Z,1019.51
2016-12-25T01:26:39.972Z,1019.44
2016-12-25T01:27:05.534Z,1019.49
2016-12-25T01:27:31.112Z,1019.57
2016-12-25T01:27:56.661Z,1019.6
2016-12-25T01:28:22.234Z,1019.58
2016-12-25T01:28:47.799Z,1019.65
2016-12-25T01:29:13.385Z,1019.58
2016-12-25T01:29:38.927Z,1019.63
2016-12-25T01:30:04.492Z,1019.67
2016-12-25T01:30:30.065Z,1019.68
2016-12-25T01:30:55.633Z,1019.62
2016-12-25T01:31:21.203Z,1019.65
2016-12-25T01:31:46.808Z,1019.64
2016-12-25T01:32:12.375Z,1019.59
2016-12-25T01:32:37.944Z,1019.65
2016-12-25T01:33:03.609Z,1019.61
2016-12-25T01:33:29.162Z,1019.59
2016-12-25T01:33:54.711Z,1019.56
2016-12-25T01:34:20.282Z,1019.55
2016-12-25T01:34:45.988Z,1019.46
2016-12-25T01:35:11.569Z,1019.51
2016-12-25T01:35:37.137Z,1019.58
2016-12-25T01:36:02.773Z,1019.53
2016-12-25T01:36:28.319Z,1019.56
2016-12-25T01:36:53.878Z,1019.49
2016-12-25T01:37:19.465Z,1019.55
2016-12-25T01:37:45.031Z,1019.56
2016-12-25T01:38:10.594Z,1019.6
2016-12-25T01:38:36.164Z,1019.56
2016-12-25T01:39:01.715Z,1019.52
2016-12-25T01:39:27.375Z,1019.52
2016-12-25T01:39:52.931Z,1019.53
2016-12-25T01:40:18.483Z,1019.49
2016-12-25T01:40:44.116Z,1019.42
2016-12-25T01:41:09.725Z,1019.45
2016-12-25T01:41:35.284Z,1019.45
2016-12-25T01:42:00.851Z,1019.47
2016-12-25T01:42:26.412Z,1019.43
2016-12-25T01:42:51.983Z,1019.45
2016-12-25T01:43:17.575Z,1019.38
2016-12-25T01:43:43.134Z,1019.43
2016-12-25T01:44:08.691Z,1019.37
2016-12-25T01:44:34.323Z,1019.41
2016-12-25T01:44:59.855Z,1019.43
2016-12-25T01:45:25.412Z,1019.45
2016-12-25T01:45:50.982Z,1019.49
2016-12-25T01:46:16.558Z,1019.37
2016-12-25T01:46:42.123Z,1019.41
2016-12-25T01:47:07.714Z,1019.41
2016-12-25T01:47:33.280Z,1019.41
2016-12-25T01:47:58.835Z,1019.39
2016-12-25T01:48:24.401Z,1019.37
2016-12-25T01:48:50.107Z,1019.37
2016-12-25T01:49:15.681Z,1019.39
2016-12-25T01:49:41.306Z,1019.37
2016-12-25T01:50:06.851Z,1019.36
2016-12-25T01:50:32.418Z,1019.37
2016-12-25T01:50:57.995Z,1019.38
2016-12-25T01:51:23.688Z,1019.44
2016-12-25T01:51:49.265Z,1019.4
2016-12-25T01:52:14.830Z,1019.39
2016-12-25T01:52:40.393Z,1019.36
2016-12-25T01:53:05.955Z,1019.42
2016-12-25T01:53:31.494Z,1019.38
2016-12-25T01:53:57.057Z,1019.39
2016-12-25T01:54:22.597Z,1019.37
2016-12-25T01:54:48.157Z,1019.32
2016-12-25T01:55:13.728Z,1019.32
2016-12-25T01:55:39.293Z,1019.24
2016-12-25T01:56:04.862Z,1019.27
2016-12-25T01:56:30.425Z,1019.22
2016-12-25T01:56:55.968Z,1019.15
2016-12-25T01:57:21.552Z,1019.17
2016-12-25T01:57:47.120Z,1019.15
2016-12-25T01:58:12.685Z,1019.1
2016-12-25T01:58:38.237Z,1019.17
2016-12-25T01:59:03.800Z,1019.14
2016-12-25T01:59:29.383Z,1019.16
2016-12-25T01:59:55.039Z,1019.13
2016-12-25T02:00:20.594Z,1019.13
2016-12-25T02:00:46.165Z,1019.16
2016-12-25T02:01:11.850Z,1019.14
2016-12-25T02:01:37.405Z,1019.1
2016-12-25T02:02:02.962Z,1019.12
2016-12-25T02:02:28.578Z,1019.12
2016-12-25T02:02:54.159Z,1019.15
2016-12-25T02:03:19.701Z,1019.17
2016-12-25T02:03:45.290Z,1019.17
2016-12-25T02:04:10.832Z,1019.12
2016-12-25T02:04:36.406Z,1019.13
2016-12-25T02:05:02.016Z,1019.18
2016-12-25T02:05:27.571Z,1019.2
2016-12-25T02:05:53.148Z,1019.19
2016-12-25T02:06:18.715Z,1019.2
2016-12-25T02:06:44.378Z,1019.24
2016-12-25T02:07:09.949Z,1019.19
2016-12-25T02:07:35.606Z,1019.16
2016-12-25T02:08:01.178Z,1019.16
2016-12-25T02:08:26.727Z,1019.22
2016-12-25T02:08:52.327Z,1019.09
2016-12-25T02:09:18.013Z,1019.18
2016-12-25T02:09:43.590Z,1019.15
2016-12-25T02:10:09.236Z,1019.14
2016-12-25T02:10:34.879Z,1019.13
2016-12-25T02:11:00.450Z,1019.2
2016-12-25T02:11:26.020Z,1019.1
2016-12-25T02:11:51.658Z,1019.18
2016-12-25T02:12:17.226Z,1019.2
2016-12-25T02:12:42.776Z,1019.17
2016-12-25T02:13:08.339Z,1019.19
2016-12-25T02:13:34.007Z,1019.13
2016-12-25T02:13:59.560Z,1019.11
2016-12-25T02:14:25.137Z,1019.13
2016-12-25T02:14:50.692Z,1019.17
2016-12-25T02:15:16.260Z,1019.26
2016-12-25T02:15:41.804Z,1019.1
2016-12-25T02:16:07.374Z,1019.13
2016-12-25T02:16:32.952Z,1019.13
2016-12-25T02:16:58.534Z,1019.19
2016-12-25T02:17:24.083Z,1019.13
2016-12-25T02:17:49.649Z,1019.13
2016-12-25T02:18:15.208Z,1019.15
2016-12-25T02:18:40.788Z,1019.13
2016-12-25T02:19:06.354Z,1019.18
2016-12-25T02:19:31.946Z,1019.18
2016-12-25T02:19:57.507Z,1019.16
2016-12-25T02:20:23.081Z,1019.15
2016-12-25T02:21:31.984Z,1019.06
2016-12-25T02:21:57.547Z,1019.09
2016-12-25T02:22:23.109Z,1019.09
2016-12-25T02:22:48.725Z,1019.08
2016-12-25T02:23:14.277Z,1019.04
2016-12-25T02:23:39.835Z,1019.03
2016-12-25T02:24:05.389Z,1019.04
2016-12-25T02:24:30.971Z,1019.01
2016-12-25T02:24:56.536Z,1019.02
2016-12-25T02:25:22.099Z,1019.01
2016-12-25T02:25:47.692Z,1018.94
2016-12-25T02:26:13.256Z,1018.93
2016-12-25T02:26:38.946Z,1018.99
2016-12-25T02:27:04.486Z,1018.91
2016-12-25T02:27:30.067Z,1018.92
2016-12-25T02:27:55.651Z,1018.84
2016-12-25T02:28:21.196Z,1018.84
2016-12-25T02:28:46.786Z,1018.84
2016-12-25T02:29:12.333Z,1018.85
2016-12-25T02:29:37.891Z,1018.88
2016-12-25T02:30:03.487Z,1018.82
2016-12-25T02:30:29.084Z,1018.74
2016-12-25T02:30:54.658Z,1018.84
2016-12-25T02:31:20.192Z,1018.81
2016-12-25T02:31:45.880Z,1018.94
2016-12-25T02:32:11.442Z,1018.88
2016-12-25T02:32:37.021Z,1018.94
2016-12-25T02:33:02.687Z,1018.95
2016-12-25T02:33:28.257Z,1018.97
2016-12-25T02:33:53.813Z,1018.93
2016-12-25T02:34:19.481Z,1018.99
2016-12-25T02:34:45.074Z,1018.95
2016-12-25T02:35:10.656Z,1018.97
2016-12-25T02:35:36.202Z,1019.02
2016-12-25T02:36:01.887Z,1018.96
2016-12-25T02:36:27.455Z,1019.02
2016-12-25T02:36:53.001Z,1018.96
2016-12-25T02:37:18.573Z,1018.98
2016-12-25T02:37:44.130Z,1019.02
2016-12-25T02:38:09.685Z,1019.05
2016-12-25T02:38:35.261Z,1019.03
2016-12-25T02:39:00.866Z,1019.04
2016-12-25T02:39:26.426Z,1019.03
2016-12-25T02:39:51.972Z,1019.02
2016-12-25T02:40:17.567Z,1019.08
2016-12-25T02:40:43.136Z,1019.04
2016-12-25T02:42:02.280Z,1018.97
2016-12-25T02:42:27.868Z,1018.97
2016-12-25T02:42:53.471Z,1018.94
2016-12-25T02:43:19.026Z,1018.98
2016-12-25T02:43:44.597Z,1018.94
2016-12-25T02:44:10.164Z,1019.01
2016-12-25T02:44:35.720Z,1018.92
2016-12-25T02:45:01.293Z,1018.94
2016-12-25T02:45:26.844Z,1018.87
2016-12-25T02:45:52.397Z,1018.86
2016-12-25T02:46:17.967Z,1018.82
2016-12-25T02:46:43.592Z,1018.78
2016-12-25T02:47:09.144Z,1018.74
2016-12-25T02:47:34.713Z,1018.71
2016-12-25T02:48:00.333Z,1018.8
2016-12-25T02:48:25.924Z,1018.8
2016-12-25T02:48:51.484Z,1018.8
2016-12-25T02:49:17.034Z,1018.87
2016-12-25T02:49:42.589Z,1018.8
2016-12-25T02:50:08.172Z,1018.85
2016-12-25T02:50:33.752Z,1018.86
2016-12-25T02:50:59.317Z,1018.86
2016-12-25T02:51:24.859Z,1018.86
2016-12-25T02:51:50.408Z,1018.9
2016-12-25T02:52:15.972Z,1018.87
2016-12-25T02:52:41.544Z,1018.89
2016-12-25T02:53:07.123Z,1018.86
2016-12-25T02:53:32.679Z,1018.91
2016-12-25T02:53:58.240Z,1018.91
2016-12-25T02:54:23.890Z,1018.92
2016-12-25T02:54:49.458Z,1018.94
2016-12-25T02:55:15.028Z,1018.9
2016-12-25T02:55:40.583Z,1018.96
2016-12-25T02:56:06.135Z,1019.01
2016-12-25T02:56:31.770Z,1018.93
2016-12-25T02:56:57.347Z,1018.9
2016-12-25T02:57:22.893Z,1018.97
2016-12-25T02:57:48.445Z,1018.98
2016-12-25T02:58:14.130Z,1018.9
2016-12-25T02:58:39.693Z,1018.92
2016-12-25T02:59:05.244Z,1018.92
2016-12-25T02:59:30.956Z,1018.86
2016-12-25T02:59:56.512Z,1018.91
2016-12-25T03:00:22.084Z,1018.85
2016-12-25T03:00:47.765Z,1018.94
2016-12-25T03:01:13.320Z,1018.96
2016-12-25T03:01:38.896Z,1018.86
2016-12-25T03:02:04.562Z,1018.88
2016-12-25T03:02:30.181Z,1018.94
2016-12-25T03:02:55.731Z,1018.96
2016-12-25T03:03:21.301Z,1018.97
2016-12-25T03:03:46.857Z,1018.85
2016-12-25T03:04:12.415Z,1018.93
2016-12-25T03:04:37.984Z,1018.88
2016-12-25T03:05:03.535Z,1018.96
2016-12-25T03:05:29.100Z,1018.89
2016-12-25T03:05:54.655Z,1018.85
2016-12-25T03:06:20.225Z,1018.83
2016-12-25T03:06:45.796Z,1018.81
2016-12-25T03:07:11.350Z,1018.81
2016-12-25T03:07:36.911Z,1018.86
2016-12-25T03:08:02.570Z,1018.86
2016-12-25T03:08:28.126Z,1018.84
2016-12-25T03:08:53.678Z,1018.76
2016-12-25T03:09:19.231Z,1018.78
2016-12-25T03:09:44.793Z,1018.78
2016-12-25T03:10:10.359Z,1018.74
2016-12-25T03:10:35.926Z,1018.8
2016-12-25T03:11:01.498Z,1018.85
2016-12-25T03:11:27.047Z,1018.76
2016-12-25T03:11:52.599Z,1018.75
2016-12-25T03:12:18.156Z,1018.77
2016-12-25T03:12:43.711Z,1018.8
2016-12-25T03:13:09.305Z,1018.84
2016-12-25T03:13:34.886Z,1018.97
2016-12-25T03:14:00.467Z,1018.97
2016-12-25T03:14:26.033Z,1018.91
2016-12-25T03:14:51.606Z,1018.96
2016-12-25T03:15:17.283Z,1018.95
2016-12-25T03:15:42.921Z,1018.98
2016-12-25T03:16:08.481Z,1018.97
2016-12-25T03:16:34.035Z,1019.08
2016-12-25T03:16:59.705Z,1018.9
2016-12-25T03:17:25.277Z,1018.93
2016-12-25T03:17:50.839Z,1018.95
2016-12-25T03:18:16.412Z,1019
2016-12-25T03:18:41.964Z,1019.01
2016-12-25T03:19:07.520Z,1018.91
2016-12-25T03:19:33.081Z,1018.94
2016-12-25T03:19:58.630Z,1018.97
2016-12-25T03:20:24.196Z,1018.99
2016-12-25T03:20:49.834Z,1019.01
2016-12-25T03:21:15.401Z,1018.97
2016-12-25T03:21:40.968Z,1019.03
2016-12-25T03:22:06.570Z,1019.05
2016-12-25T03:22:32.130Z,1019
2016-12-25T03:22:57.703Z,1018.93
2016-12-25T03:23:23.294Z,1018.93
2016-12-25T03:23:48.865Z,1018.96
2016-12-25T03:24:14.432Z,1018.91
2016-12-25T03:24:40.005Z,1019.01
2016-12-25T03:25:05.572Z,1018.97
2016-12-25T03:25:31.146Z,1019.04
2016-12-25T03:25:56.803Z,1018.98
2016-12-25T03:26:22.399Z,1019.01
2016-12-25T03:26:47.946Z,1018.94
2016-12-25T03:27:13.513Z,1018.97
2016-12-25T03:27:39.064Z,1018.93
2016-12-25T03:28:04.616Z,1018.95
2016-12-25T03:28:30.162Z,1019.05
2016-12-25T03:28:55.703Z,1019.06
2016-12-25T03:29:21.394Z,1019.03
2016-12-25T03:29:46.999Z,1019.06
2016-12-25T03:30:12.563Z,1018.99
2016-12-25T03:30:38.133Z,1019.02
2016-12-25T03:31:03.807Z,1019.06
2016-12-25T03:31:29.359Z,1019.02
2016-12-25T03:31:54.919Z,1019.12
2016-12-25T03:32:20.475Z,1019.07
2016-12-25T03:32:46.032Z,1019.03
2016-12-25T03:33:11.589Z,1019.06
2016-12-25T03:33:37.185Z,1019.04
2016-12-25T03:34:02.733Z,1018.96
2016-12-25T03:34:28.327Z,1019.05
2016-12-25T03:34:53.892Z,1019.03
2016-12-25T03:35:19.438Z,1019.02
2016-12-25T03:35:45.017Z,1019.04
2016-12-25T03:36:10.591Z,1019.05
2016-12-25T03:36:36.152Z,1019.07
2016-12-25T03:37:01.710Z,1019.06
2016-12-25T03:37:27.267Z,1018.96
2016-12-25T03:37:52.823Z,1018.98
2016-12-25T03:38:18.517Z,1019.03
2016-12-25T03:38:44.081Z,1019.08
2016-12-25T03:39:09.670Z,1019.01
2016-12-25T03:39:35.338Z,1018.98
2016-12-25T03:40:00.893Z,1018.96
2016-12-25T03:40:26.458Z,1018.97
2016-12-25T03:40:51.993Z,1019.04
2016-12-25T03:41:17.565Z,1018.97
2016-12-25T03:41:43.124Z,1019.03
2016-12-25T03:42:08.703Z,1018.97
2016-12-25T03:42:34.263Z,1019.02
2016-12-25T03:42:59.816Z,1019.02
2016-12-25T03:43:25.384Z,1019.04
2016-12-25T03:43:50.932Z,1019.02
2016-12-25T03:44:16.488Z,1018.92
2016-12-25T03:44:42.063Z,1018.9
2016-12-25T03:45:07.617Z,1018.92
2016-12-25T03:45:33.185Z,1018.9
2016-12-25T03:45:58.849Z,1018.9
2016-12-25T03:46:24.398Z,1018.97
2016-12-25T03:46:49.969Z,1019
2016-12-25T03:47:15.659Z,1019.02
2016-12-25T03:47:41.237Z,1018.93
2016-12-25T03:48:06.790Z,1018.97
2016-12-25T03:48:32.392Z,1018.97
2016-12-25T03:48:58.001Z,1018.98
2016-12-25T03:49:23.587Z,1018.96
2016-12-25T03:49:49.144Z,1018.97
2016-12-25T03:50:14.804Z,1018.97
2016-12-25T03:50:40.386Z,1018.93
2016-12-25T03:51:05.948Z,1018.95
2016-12-25T03:51:31.512Z,1018.93
2016-12-25T03:51:57.076Z,1018.92
2016-12-25T03:52:22.643Z,1018.96
2016-12-25T03:52:48.246Z,1018.89
2016-12-25T03:53:13.811Z,1018.93
2016-12-25T03:53:39.363Z,1018.95
2016-12-25T03:54:04.900Z,1018.89
2016-12-25T03:54:30.475Z,1018.9
2016-12-25T03:54:56.036Z,1018.8
2016-12-25T03:55:21.603Z,1018.82
2016-12-25T03:55:47.169Z,1018.85
2016-12-25T03:56:12.806Z,1018.81
2016-12-25T03:56:38.365Z,1018.79
2016-12-25T03:57:03.902Z,1018.89
2016-12-25T03:57:29.467Z,1018.9
2016-12-25T03:57:55.027Z,1018.87
2016-12-25T03:58:20.579Z,1018.89
2016-12-25T03:58:46.139Z,1018.85
2016-12-25T03:59:11.699Z,1018.86
2016-12-25T03:59:37.255Z,1018.84
2016-12-25T04:00:02.842Z,1018.84
2016-12-25T04:00:28.399Z,1018.84
2016-12-25T04:00:53.960Z,1018.82
2016-12-25T04:01:19.508Z,1018.81
2016-12-25T04:01:45.080Z,1018.79
2016-12-25T04:02:10.768Z,1018.81
2016-12-25T04:02:36.331Z,1018.74
2016-12-25T04:03:01.880Z,1018.74
2016-12-25T04:03:27.549Z,1018.74
2016-12-25T04:03:53.158Z,1018.78
2016-12-25T04:04:18.718Z,1018.76
2016-12-25T04:04:44.411Z,1018.78
2016-12-25T04:05:09.977Z,1018.71
2016-12-25T04:05:35.528Z,1018.72
2016-12-25T04:06:01.074Z,1018.72
2016-12-25T04:06:26.703Z,1018.71
2016-12-25T04:06:52.284Z,1018.78
2016-12-25T04:07:17.838Z,1018.76
2016-12-25T04:07:43.391Z,1018.78
2016-12-25T04:08:08.960Z,1018.73
2016-12-25T04:08:34.563Z,1018.68
2016-12-25T04:09:00.096Z,1018.75
2016-12-25T04:09:25.649Z,1018.83
2016-12-25T04:09:51.188Z,1018.8
2016-12-25T04:10:16.742Z,1018.71
2016-12-25T04:10:42.302Z,1018.7
2016-12-25T04:11:07.859Z,1018.74
2016-12-25T04:11:33.403Z,1018.76
2016-12-25T04:11:59.038Z,1018.75
2016-12-25T04:12:24.719Z,1018.77
2016-12-25T04:12:50.292Z,1018.82
2016-12-25T04:14:04.172Z,1018.82
2016-12-25T04:14:29.778Z,1018.82
2016-12-25T04:14:55.344Z,1018.82
2016-12-25T04:15:20.893Z,1018.84
2016-12-25T04:15:46.430Z,1018.81
2016-12-25T04:16:11.992Z,1018.83
2016-12-25T04:16:37.553Z,1018.79
2016-12-25T04:17:03.157Z,1018.86
2016-12-25T04:17:28.701Z,1018.83
2016-12-25T04:17:54.367Z,1018.89
2016-12-25T04:18:19.930Z,1018.79
2016-12-25T04:18:45.490Z,1018.78
2016-12-25T04:19:11.071Z,1018.83
2016-12-25T04:19:36.640Z,1018.81
2016-12-25T04:20:02.205Z,1018.78
2016-12-25T04:20:27.751Z,1018.85
2016-12-25T04:20:53.318Z,1018.81
2016-12-25T04:21:18.886Z,1018.91
2016-12-25T04:21:44.487Z,1018.86
2016-12-25T04:22:10.109Z,1018.92
2016-12-25T04:22:35.708Z,1018.84
2016-12-25T04:23:01.314Z,1018.92
2016-12-25T04:23:26.879Z,1018.94
2016-12-25T04:23:52.426Z,1018.9
2016-12-25T04:24:17.987Z,1018.92
2016-12-25T04:24:43.533Z,1018.93
2016-12-25T04:25:09.082Z,1018.92
2016-12-25T04:25:34.623Z,1018.95
2016-12-25T04:26:00.180Z,1018.91
2016-12-25T04:26:25.767Z,1018.92
2016-12-25T04:26:51.305Z,1018.97
2016-12-25T04:27:16.878Z,1018.99
2016-12-25T04:27:42.488Z,1018.93
2016-12-25T04:28:08.074Z,1018.96
2016-12-25T04:28:33.633Z,1018.96
2016-12-25T04:28:59.240Z,1019.03
2016-12-25T04:29:24.868Z,1018.93
2016-12-25T04:29:50.424Z,1019.07
2016-12-25T04:30:15.999Z,1019.02
2016-12-25T04:30:41.700Z,1019.03
2016-12-25T04:31:07.258Z,1019.07
2016-12-25T04:31:32.841Z,1019.12
2016-12-25T04:31:58.391Z,1019.04
2016-12-25T04:32:24.036Z,1018.98
2016-12-25T04:32:49.588Z,1019.01
2016-12-25T04:33:15.162Z,1019.05
2016-12-25T04:33:40.766Z,1018.98
2016-12-25T04:34:06.385Z,1019.04
2016-12-25T04:34:31.970Z,1018.94
2016-12-25T04:34:57.527Z,1018.93
2016-12-25T04:35:23.165Z,1018.95
2016-12-25T04:35:48.732Z,1018.95
2016-12-25T04:36:14.294Z,1018.98
2016-12-25T04:36:39.883Z,1019.01
2016-12-25T04:37:05.490Z,1019.03
2016-12-25T04:37:31.046Z,1019.03
2016-12-25T04:37:56.612Z,1019.03
2016-12-25T04:38:22.208Z,1019.03
2016-12-25T04:38:47.774Z,1019.01
2016-12-25T04:39:13.339Z,1019.02
2016-12-25T04:39:38.911Z,1019.01
2016-12-25T04:40:04.470Z,1019.03
2016-12-25T04:40:30.027Z,1018.97
2016-12-25T04:40:55.577Z,1019
2016-12-25T04:41:21.158Z,1018.97
2016-12-25T04:41:46.705Z,1018.99
2016-12-25T04:42:12.238Z,1018.97
2016-12-25T04:42:37.790Z,1018.94
2016-12-25T04:43:03.363Z,1018.92
2016-12-25T04:43:28.933Z,1018.92
2016-12-25T04:43:54.499Z,1018.99
2016-12-25T04:44:20.052Z,1018.96
2016-12-25T04:44:45.697Z,1018.9
2016-12-25T04:45:11.301Z,1018.94
2016-12-25T04:45:36.862Z,1018.92
2016-12-25T04:46:02.398Z,1018.87
2016-12-25T04:46:27.944Z,1018.85
2016-12-25T04:46:53.518Z,1018.85
2016-12-25T04:47:19.168Z,1018.85
2016-12-25T04:47:44.715Z,1018.85
2016-12-25T04:48:10.262Z,1018.79
2016-12-25T04:48:35.822Z,1018.87
2016-12-25T04:49:01.377Z,1018.79
2016-12-25T04:49:26.948Z,1018.83
2016-12-25T04:49:52.520Z,1018.74
2016-12-25T04:50:18.069Z,1018.76
2016-12-25T04:50:43.738Z,1018.83
2016-12-25T04:51:09.334Z,1018.79
2016-12-25T04:51:34.883Z,1018.78
2016-12-25T04:52:00.539Z,1018.8
2016-12-25T04:52:26.097Z,1018.71
2016-12-25T04:52:51.653Z,1018.74
2016-12-25T04:53:17.254Z,1018.82
2016-12-25T04:53:42.859Z,1018.76
2016-12-25T04:54:08.434Z,1018.64
2016-12-25T04:54:33.985Z,1018.72
2016-12-25T04:54:59.555Z,1018.71
2016-12-25T04:55:25.115Z,1018.68
2016-12-25T04:55:50.736Z,1018.65
2016-12-25T04:56:16.303Z,1018.67
2016-12-25T04:56:41.864Z,1018.68
2016-12-25T04:57:07.437Z,1018.7
2016-12-25T04:57:32.995Z,1018.66
2016-12-25T04:57:58.559Z,1018.68
2016-12-25T04:58:24.123Z,1018.68
2016-12-25T04:58:49.683Z,1018.65
2016-12-25T04:59:15.249Z,1018.66
2016-12-25T04:59:40.806Z,1018.66
2016-12-25T05:00:06.367Z,1018.64
2016-12-25T05:00:31.957Z,1018.74
2016-12-25T05:00:57.517Z,1018.61
2016-12-25T05:01:23.074Z,1018.7
2016-12-25T05:01:48.634Z,1018.66
2016-12-25T05:02:14.189Z,1018.62
2016-12-25T05:02:39.746Z,1018.71
2016-12-25T05:03:05.399Z,1018.7
2016-12-25T05:03:31.030Z,1018.68
2016-12-25T05:03:56.574Z,1018.74
2016-12-25T05:04:22.125Z,1018.75
2016-12-25T05:04:47.775Z,1018.73
2016-12-25T05:05:13.378Z,1018.72
2016-12-25T05:05:38.942Z,1018.74
2016-12-25T05:06:04.501Z,1018.68
2016-12-25T05:06:30.194Z,1018.74
2016-12-25T05:06:55.755Z,1018.66
2016-12-25T05:07:21.466Z,1018.65
2016-12-25T05:07:47.026Z,1018.68
2016-12-25T05:08:12.586Z,1018.67
2016-12-25T05:08:38.228Z,1018.74
2016-12-25T05:09:03.787Z,1018.65
2016-12-25T05:09:29.345Z,1018.68
2016-12-25T05:09:54.947Z,1018.72
2016-12-25T05:10:20.524Z,1018.6
2016-12-25T05:10:46.068Z,1018.54
2016-12-25T05:11:11.637Z,1018.69
2016-12-25T05:11:37.201Z,1018.62
2016-12-25T05:12:02.758Z,1018.63
2016-12-25T05:12:28.449Z,1018.68
2016-12-25T05:12:54.018Z,1018.56
2016-12-25T05:13:19.575Z,1018.56
2016-12-25T05:13:45.140Z,1018.56
2016-12-25T05:14:10.697Z,1018.63
2016-12-25T05:14:36.255Z,1018.55
2016-12-25T05:15:01.822Z,1018.5